sensor_id;sensor_type;location;lat;lon;timestamp;temperature;humidity
14934;DHT22;7560;51.364;12.384;2023-11-22T00:02:19;2.70;99.90
14934;DHT22;7560;51.364;12.384;2023-11-22T00:07:21;2.70;99.90
14934;DHT22;7560;51.364;12.384;2023-11-22T00:12:24;2.60;99.90
14934;DHT22;7560;51.364;12.384;2023-11-22T00:17:26;2.50;99.90
14934;DHT22;7560;51.364;12.384;2023-11-22T00:22:28;2.60;99.90
14934;DHT22;7560;51.364;12.384;2023-11-22T00:27:32;2.60;99.90
14934;DHT22;7560;51.364;12.384;2023-11-22T00:32:34;2.60;99.90
14934;DHT22;7560;51.364;12.384;2023-11-22T00:37:36;2.60;99.90
14934;DHT22;7560;51.364;12.384;2023-11-22T00:42:38;2.50;99.90
14934;DHT22;7560;51.364;12.384;2023-11-22T00:47:43;2.50;99.90
14934;DHT22;7560;51.364;12.384;2023-11-22T00:52:46;2.50;99.90
14934;DHT22;7560;51.364;12.384;2023-11-22T00:57:47;2.50;99.90
14934;DHT22;7560;51.364;12.384;2023-11-22T01:02:49;2.50;99.90
14934;DHT22;7560;51.364;12.384;2023-11-22T01:07:51;2.50;99.90
14934;DHT22;7560;51.364;12.384;2023-11-22T01:12:53;2.40;99.90
14934;DHT22;7560;51.364;12.384;2023-11-22T01:17:55;2.40;99.90
14934;DHT22;7560;51.364;12.384;2023-11-22T01:22:57;2.40;99.90
14934;DHT22;7560;51.364;12.384;2023-11-22T01:27:58;2.40;99.90
14934;DHT22;7560;51.364;12.384;2023-11-22T01:33:00;2.30;99.90
14934;DHT22;7560;51.364;12.384;2023-11-22T01:38:02;2.40;99.90
14934;DHT22;7560;51.364;12.384;2023-11-22T01:43:05;2.30;99.90
14934;DHT22;7560;51.364;12.384;2023-11-22T01:48:07;2.20;99.90
14934;DHT22;7560;51.364;12.384;2023-11-22T01:53:12;2.10;99.90
14934;DHT22;7560;51.364;12.384;2023-11-22T01:58:15;1.80;99.90
14934;DHT22;7560;51.364;12.384;2023-11-22T02:03:17;1.70;99.90
14934;DHT22;7560;51.364;12.384;2023-11-22T02:08:19;1.60;99.90
14934;DHT22;7560;51.364;12.384;2023-11-22T02:13:21;1.50;99.90
14934;DHT22;7560;51.364;12.384;2023-11-22T02:18:26;1.50;99.90
14934;DHT22;7560;51.364;12.384;2023-11-22T02:23:28;1.40;99.90
14934;DHT22;7560;51.364;12.384;2023-11-22T02:28:30;1.30;99.90
14934;DHT22;7560;51.364;12.384;2023-11-22T02:33:32;1.30;99.90
14934;DHT22;7560;51.364;12.384;2023-11-22T02:38:34;1.20;99.90
14934;DHT22;7560;51.364;12.384;2023-11-22T02:43:36;1.20;99.90
14934;DHT22;7560;51.364;12.384;2023-11-22T02:48:38;1.10;99.90
14934;DHT22;7560;51.364;12.384;2023-11-22T02:53:40;1.00;99.90
14934;DHT22;7560;51.364;12.384;2023-11-22T02:58:45;0.90;99.90
14934;DHT22;7560;51.364;12.384;2023-11-22T03:03:47;0.90;99.90
14934;DHT22;7560;51.364;12.384;2023-11-22T03:08:49;0.80;99.90
14934;DHT22;7560;51.364;12.384;2023-11-22T03:13:51;0.80;99.90
14934;DHT22;7560;51.364;12.384;2023-11-22T03:18:52;0.80;99.90
14934;DHT22;7560;51.364;12.384;2023-11-22T03:23:55;0.70;99.90
14934;DHT22;7560;51.364;12.384;2023-11-22T03:28:57;0.70;99.90
14934;DHT22;7560;51.364;12.384;2023-11-22T03:33:59;0.60;99.90
14934;DHT22;7560;51.364;12.384;2023-11-22T03:39:01;0.50;99.90
14934;DHT22;7560;51.364;12.384;2023-11-22T03:44:04;0.50;99.90
14934;DHT22;7560;51.364;12.384;2023-11-22T03:49:10;0.50;99.90
14934;DHT22;7560;51.364;12.384;2023-11-22T03:54:12;0.50;99.90
14934;DHT22;7560;51.364;12.384;2023-11-22T03:59:14;0.50;99.90
14934;DHT22;7560;51.364;12.384;2023-11-22T04:04:16;0.40;99.90
14934;DHT22;7560;51.364;12.384;2023-11-22T04:09:18;0.40;99.90
14934;DHT22;7560;51.364;12.384;2023-11-22T04:14:20;0.30;99.90
14934;DHT22;7560;51.364;12.384;2023-11-22T04:19:23;0.30;99.90
14934;DHT22;7560;51.364;12.384;2023-11-22T04:24:26;0.30;99.90
14934;DHT22;7560;51.364;12.384;2023-11-22T04:29:28;0.30;99.90
14934;DHT22;7560;51.364;12.384;2023-11-22T04:34:30;0.30;99.90
14934;DHT22;7560;51.364;12.384;2023-11-22T04:39:32;0.20;99.90
14934;DHT22;7560;51.364;12.384;2023-11-22T04:44:33;0.20;99.90
14934;DHT22;7560;51.364;12.384;2023-11-22T04:49:35;0.10;99.90
14934;DHT22;7560;51.364;12.384;2023-11-22T04:54:37;0.10;99.90
14934;DHT22;7560;51.364;12.384;2023-11-22T04:59:39;0.10;99.90
14934;DHT22;7560;51.364;12.384;2023-11-22T05:04:42;0.10;99.90
14934;DHT22;7560;51.364;12.384;2023-11-22T05:09:44;0.10;99.90
14934;DHT22;7560;51.364;12.384;2023-11-22T05:14:45;0.00;99.90
14934;DHT22;7560;51.364;12.384;2023-11-22T05:19:47;0.00;99.90
14934;DHT22;7560;51.364;12.384;2023-11-22T05:24:49;0.00;99.90
14934;DHT22;7560;51.364;12.384;2023-11-22T05:29:51;-0.10;99.90
14934;DHT22;7560;51.364;12.384;2023-11-22T05:34:56;-0.10;99.90
14934;DHT22;7560;51.364;12.384;2023-11-22T05:39:58;-0.10;99.90
14934;DHT22;7560;51.364;12.384;2023-11-22T05:45:01;-0.20;99.90
14934;DHT22;7560;51.364;12.384;2023-11-22T05:50:04;-0.30;99.90
14934;DHT22;7560;51.364;12.384;2023-11-22T05:55:07;-0.40;99.90
14934;DHT22;7560;51.364;12.384;2023-11-22T06:00:10;-0.40;99.90
14934;DHT22;7560;51.364;12.384;2023-11-22T06:05:12;-0.30;99.90
14934;DHT22;7560;51.364;12.384;2023-11-22T06:10:14;-0.30;99.90
14934;DHT22;7560;51.364;12.384;2023-11-22T06:15:17;-0.20;99.90
14934;DHT22;7560;51.364;12.384;2023-11-22T06:20:20;0.00;99.90
14934;DHT22;7560;51.364;12.384;2023-11-22T06:25:23;-0.10;99.90
14934;DHT22;7560;51.364;12.384;2023-11-22T06:30:25;0.00;99.90
14934;DHT22;7560;51.364;12.384;2023-11-22T06:35:27;0.10;99.90
14934;DHT22;7560;51.364;12.384;2023-11-22T06:40:28;0.20;99.90
14934;DHT22;7560;51.364;12.384;2023-11-22T06:45:31;0.20;99.90
14934;DHT22;7560;51.364;12.384;2023-11-22T06:50:33;0.20;99.90
14934;DHT22;7560;51.364;12.384;2023-11-22T06:55:35;0.20;99.90
14934;DHT22;7560;51.364;12.384;2023-11-22T07:00:36;0.10;99.90
14934;DHT22;7560;51.364;12.384;2023-11-22T07:05:40;0.20;99.90
14934;DHT22;7560;51.364;12.384;2023-11-22T07:10:42;0.10;99.90
14934;DHT22;7560;51.364;12.384;2023-11-22T07:15:44;0.10;99.90
14934;DHT22;7560;51.364;12.384;2023-11-22T07:20:46;0.00;99.90
14934;DHT22;7560;51.364;12.384;2023-11-22T07:25:50;0.00;99.90
14934;DHT22;7560;51.364;12.384;2023-11-22T07:30:52;0.10;99.90
14934;DHT22;7560;51.364;12.384;2023-11-22T07:35:54;0.10;99.90
14934;DHT22;7560;51.364;12.384;2023-11-22T07:40:56;0.20;99.90
14934;DHT22;7560;51.364;12.384;2023-11-22T07:45:58;0.10;99.90
14934;DHT22;7560;51.364;12.384;2023-11-22T07:51:01;0.20;99.90
14934;DHT22;7560;51.364;12.384;2023-11-22T07:56:03;0.10;99.90
14934;DHT22;7560;51.364;12.384;2023-11-22T08:01:06;0.30;99.90
14934;DHT22;7560;51.364;12.384;2023-11-22T08:06:16;0.40;99.90
14934;DHT22;7560;51.364;12.384;2023-11-22T08:11:18;0.40;99.90
14934;DHT22;7560;51.364;12.384;2023-11-22T08:16:20;0.30;99.90
14934;DHT22;7560;51.364;12.384;2023-11-22T08:21:23;0.30;99.90
14934;DHT22;7560;51.364;12.384;2023-11-22T08:26:25;0.40;99.90
14934;DHT22;7560;51.364;12.384;2023-11-22T08:31:29;0.20;99.90
14934;DHT22;7560;51.364;12.384;2023-11-22T08:36:32;0.40;99.90
14934;DHT22;7560;51.364;12.384;2023-11-22T08:41:35;0.60;99.90
14934;DHT22;7560;51.364;12.384;2023-11-22T08:46:37;0.50;99.90
14934;DHT22;7560;51.364;12.384;2023-11-22T08:51:39;0.80;99.90
14934;DHT22;7560;51.364;12.384;2023-11-22T08:56:41;0.50;99.90
14934;DHT22;7560;51.364;12.384;2023-11-22T09:01:44;0.80;99.90
14934;DHT22;7560;51.364;12.384;2023-11-22T09:06:47;0.70;99.90
14934;DHT22;7560;51.364;12.384;2023-11-22T09:11:48;0.60;99.90
14934;DHT22;7560;51.364;12.384;2023-11-22T09:16:51;0.70;99.90
14934;DHT22;7560;51.364;12.384;2023-11-22T09:21:56;0.60;99.90
14934;DHT22;7560;51.364;12.384;2023-11-22T09:26:57;0.80;99.90
14934;DHT22;7560;51.364;12.384;2023-11-22T09:32:00;1.00;99.90
14934;DHT22;7560;51.364;12.384;2023-11-22T09:37:02;1.40;99.90
14934;DHT22;7560;51.364;12.384;2023-11-22T09:42:05;1.00;99.90
14934;DHT22;7560;51.364;12.384;2023-11-22T09:47:07;1.00;99.90
14934;DHT22;7560;51.364;12.384;2023-11-22T09:52:11;1.40;99.90
14934;DHT22;7560;51.364;12.384;2023-11-22T09:57:16;1.70;99.90
14934;DHT22;7560;51.364;12.384;2023-11-22T10:02:19;1.80;99.90
14934;DHT22;7560;51.364;12.384;2023-11-22T10:07:24;1.50;99.90
14934;DHT22;7560;51.364;12.384;2023-11-22T10:12:29;1.20;99.90
14934;DHT22;7560;51.364;12.384;2023-11-22T10:17:31;1.50;99.90
14934;DHT22;7560;51.364;12.384;2023-11-22T10:22:44;2.10;99.90
14934;DHT22;7560;51.364;12.384;2023-11-22T10:27:47;2.00;99.90
14934;DHT22;7560;51.364;12.384;2023-11-22T10:32:49;1.70;99.90
14934;DHT22;7560;51.364;12.384;2023-11-22T10:37:52;1.70;99.90
14934;DHT22;7560;51.364;12.384;2023-11-22T10:42:56;1.60;99.90
14934;DHT22;7560;51.364;12.384;2023-11-22T10:48:00;1.30;99.90
14934;DHT22;7560;51.364;12.384;2023-11-22T10:53:07;1.60;99.90
14934;DHT22;7560;51.364;12.384;2023-11-22T10:58:16;1.90;99.90
14934;DHT22;7560;51.364;12.384;2023-11-22T11:03:24;1.70;99.90
14934;DHT22;7560;51.364;12.384;2023-11-22T11:08:33;1.80;99.90
14934;DHT22;7560;51.364;12.384;2023-11-22T11:13:39;2.10;99.90
14934;DHT22;7560;51.364;12.384;2023-11-22T11:18:41;2.60;99.90
14934;DHT22;7560;51.364;12.384;2023-11-22T11:23:43;2.90;99.90
14934;DHT22;7560;51.364;12.384;2023-11-22T11:28:47;3.00;99.90
14934;DHT22;7560;51.364;12.384;2023-11-22T11:38:56;2.80;99.90
14934;DHT22;7560;51.364;12.384;2023-11-22T11:44:01;2.30;99.90
14934;DHT22;7560;51.364;12.384;2023-11-22T11:49:07;2.20;99.90
14934;DHT22;7560;51.364;12.384;2023-11-22T11:54:12;2.30;99.90
14934;DHT22;7560;51.364;12.384;2023-11-22T11:59:19;2.50;99.90
14934;DHT22;7560;51.364;12.384;2023-11-22T12:04:23;2.70;99.90
14934;DHT22;7560;51.364;12.384;2023-11-22T12:09:25;2.70;99.90
14934;DHT22;7560;51.364;12.384;2023-11-22T12:14:28;2.60;99.90
14934;DHT22;7560;51.364;12.384;2023-11-22T12:19:30;3.00;99.90
14934;DHT22;7560;51.364;12.384;2023-11-22T12:24:33;3.10;99.90
14934;DHT22;7560;51.364;12.384;2023-11-22T12:29:36;3.20;99.90
14934;DHT22;7560;51.364;12.384;2023-11-22T12:34:39;2.90;99.90
14934;DHT22;7560;51.364;12.384;2023-11-22T12:39:41;3.10;99.90
14934;DHT22;7560;51.364;12.384;2023-11-22T12:44:50;2.20;99.90
14934;DHT22;7560;51.364;12.384;2023-11-22T12:49:54;2.30;99.90
14934;DHT22;7560;51.364;12.384;2023-11-22T12:54:56;2.70;99.90
14934;DHT22;7560;51.364;12.384;2023-11-22T12:59:58;2.70;99.90
14934;DHT22;7560;51.364;12.384;2023-11-22T13:05:00;2.70;99.90
14934;DHT22;7560;51.364;12.384;2023-11-22T13:10:02;2.90;99.90
14934;DHT22;7560;51.364;12.384;2023-11-22T13:15:05;3.10;99.90
14934;DHT22;7560;51.364;12.384;2023-11-22T13:20:08;3.20;99.90
14934;DHT22;7560;51.364;12.384;2023-11-22T13:25:16;3.00;99.90
14934;DHT22;7560;51.364;12.384;2023-11-22T13:30:20;3.10;99.90
14934;DHT22;7560;51.364;12.384;2023-11-22T13:35:25;3.10;99.90
14934;DHT22;7560;51.364;12.384;2023-11-22T13:40:29;2.90;99.90
14934;DHT22;7560;51.364;12.384;2023-11-22T13:45:32;3.00;99.90
14934;DHT22;7560;51.364;12.384;2023-11-22T13:50:39;3.10;99.90
14934;DHT22;7560;51.364;12.384;2023-11-22T13:55:41;3.00;99.90
14934;DHT22;7560;51.364;12.384;2023-11-22T14:00:43;2.90;99.90
14934;DHT22;7560;51.364;12.384;2023-11-22T14:05:45;2.90;99.90
14934;DHT22;7560;51.364;12.384;2023-11-22T14:10:46;2.90;99.90
14934;DHT22;7560;51.364;12.384;2023-11-22T14:15:48;2.90;99.90
14934;DHT22;7560;51.364;12.384;2023-11-22T14:20:50;2.90;99.90
14934;DHT22;7560;51.364;12.384;2023-11-22T14:25:52;2.80;99.90
14934;DHT22;7560;51.364;12.384;2023-11-22T14:30:54;2.80;99.90
14934;DHT22;7560;51.364;12.384;2023-11-22T14:35:56;2.80;99.90
14934;DHT22;7560;51.364;12.384;2023-11-22T14:40:58;2.70;99.90
14934;DHT22;7560;51.364;12.384;2023-11-22T14:46:00;2.60;99.90
14934;DHT22;7560;51.364;12.384;2023-11-22T14:51:03;2.70;99.90
14934;DHT22;7560;51.364;12.384;2023-11-22T14:56:05;2.70;99.90
14934;DHT22;7560;51.364;12.384;2023-11-22T15:01:09;2.50;99.90
14934;DHT22;7560;51.364;12.384;2023-11-22T15:06:11;2.40;99.90
14934;DHT22;7560;51.364;12.384;2023-11-22T15:11:17;2.50;99.90
14934;DHT22;7560;51.364;12.384;2023-11-22T15:16:19;2.50;99.90
14934;DHT22;7560;51.364;12.384;2023-11-22T15:21:21;2.50;99.90
14934;DHT22;7560;51.364;12.384;2023-11-22T15:26:23;2.30;99.90
14934;DHT22;7560;51.364;12.384;2023-11-22T15:31:25;2.50;99.90
14934;DHT22;7560;51.364;12.384;2023-11-22T15:36:27;2.40;99.90
14934;DHT22;7560;51.364;12.384;2023-11-22T15:41:29;2.50;99.90
14934;DHT22;7560;51.364;12.384;2023-11-22T15:46:31;2.40;99.90
14934;DHT22;7560;51.364;12.384;2023-11-22T15:51:33;2.40;99.90
14934;DHT22;7560;51.364;12.384;2023-11-22T15:56:35;2.30;99.90
14934;DHT22;7560;51.364;12.384;2023-11-22T16:01:37;2.40;99.90
14934;DHT22;7560;51.364;12.384;2023-11-22T16:06:39;2.40;99.90
14934;DHT22;7560;51.364;12.384;2023-11-22T16:11:41;2.50;99.90
14934;DHT22;7560;51.364;12.384;2023-11-22T16:16:42;2.30;99.90
14934;DHT22;7560;51.364;12.384;2023-11-22T16:21:44;2.30;99.90
14934;DHT22;7560;51.364;12.384;2023-11-22T16:26:48;2.30;99.90
14934;DHT22;7560;51.364;12.384;2023-11-22T16:31:50;2.20;99.90
14934;DHT22;7560;51.364;12.384;2023-11-22T16:36:52;2.20;99.90
14934;DHT22;7560;51.364;12.384;2023-11-22T16:41:54;2.30;99.90
14934;DHT22;7560;51.364;12.384;2023-11-22T16:46:56;2.20;99.90
14934;DHT22;7560;51.364;12.384;2023-11-22T16:52:01;2.10;99.90
14934;DHT22;7560;51.364;12.384;2023-11-22T16:57:04;2.00;99.90
14934;DHT22;7560;51.364;12.384;2023-11-22T17:02:07;1.90;99.90
14934;DHT22;7560;51.364;12.384;2023-11-22T17:07:12;2.00;99.90
14934;DHT22;7560;51.364;12.384;2023-11-22T17:12:14;1.90;99.90
14934;DHT22;7560;51.364;12.384;2023-11-22T17:17:16;1.90;99.90
14934;DHT22;7560;51.364;12.384;2023-11-22T17:22:18;1.90;99.90
14934;DHT22;7560;51.364;12.384;2023-11-22T17:27:20;1.80;99.90
14934;DHT22;7560;51.364;12.384;2023-11-22T17:32:22;1.80;99.90
14934;DHT22;7560;51.364;12.384;2023-11-22T17:37:23;1.80;99.90
14934;DHT22;7560;51.364;12.384;2023-11-22T17:42:25;1.70;99.90
14934;DHT22;7560;51.364;12.384;2023-11-22T17:47:27;1.70;99.90
14934;DHT22;7560;51.364;12.384;2023-11-22T17:52:33;1.80;99.90
14934;DHT22;7560;51.364;12.384;2023-11-22T17:57:35;1.70;99.90
14934;DHT22;7560;51.364;12.384;2023-11-22T18:02:39;1.80;99.90
14934;DHT22;7560;51.364;12.384;2023-11-22T18:07:42;1.80;99.90
14934;DHT22;7560;51.364;12.384;2023-11-22T18:12:44;1.80;99.90
14934;DHT22;7560;51.364;12.384;2023-11-22T18:17:45;1.80;99.90
14934;DHT22;7560;51.364;12.384;2023-11-22T18:22:47;2.00;99.90
14934;DHT22;7560;51.364;12.384;2023-11-22T18:27:49;1.90;99.90
14934;DHT22;7560;51.364;12.384;2023-11-22T18:32:51;1.90;99.90
14934;DHT22;7560;51.364;12.384;2023-11-22T18:37:53;1.90;99.90
14934;DHT22;7560;51.364;12.384;2023-11-22T18:42:55;1.80;99.90
14934;DHT22;7560;51.364;12.384;2023-11-22T18:47:56;1.80;99.90
14934;DHT22;7560;51.364;12.384;2023-11-22T18:52:58;1.80;99.90
14934;DHT22;7560;51.364;12.384;2023-11-22T18:58:01;1.80;99.90
14934;DHT22;7560;51.364;12.384;2023-11-22T19:03:06;1.80;99.90
14934;DHT22;7560;51.364;12.384;2023-11-22T19:08:07;1.80;99.90
14934;DHT22;7560;51.364;12.384;2023-11-22T19:13:09;1.70;99.90
14934;DHT22;7560;51.364;12.384;2023-11-22T19:18:12;1.70;99.90
14934;DHT22;7560;51.364;12.384;2023-11-22T19:23:14;1.60;99.90
14934;DHT22;7560;51.364;12.384;2023-11-22T19:28:16;1.60;99.90
14934;DHT22;7560;51.364;12.384;2023-11-22T19:33:18;1.60;99.90
14934;DHT22;7560;51.364;12.384;2023-11-22T19:38:20;1.60;99.90
14934;DHT22;7560;51.364;12.384;2023-11-22T19:43:22;1.60;99.90
14934;DHT22;7560;51.364;12.384;2023-11-22T19:48:24;1.60;99.90
14934;DHT22;7560;51.364;12.384;2023-11-22T19:53:26;1.70;99.90
14934;DHT22;7560;51.364;12.384;2023-11-22T19:58:29;1.70;99.90
14934;DHT22;7560;51.364;12.384;2023-11-22T20:03:31;1.70;99.90
14934;DHT22;7560;51.364;12.384;2023-11-22T20:08:33;1.70;99.90
14934;DHT22;7560;51.364;12.384;2023-11-22T20:13:35;1.70;99.90
14934;DHT22;7560;51.364;12.384;2023-11-22T20:18:36;1.70;99.90
14934;DHT22;7560;51.364;12.384;2023-11-22T20:23:38;1.80;99.90
14934;DHT22;7560;51.364;12.384;2023-11-22T20:28:41;1.80;99.90
14934;DHT22;7560;51.364;12.384;2023-11-22T20:33:43;1.90;99.90
14934;DHT22;7560;51.364;12.384;2023-11-22T20:38:45;1.90;99.90
14934;DHT22;7560;51.364;12.384;2023-11-22T20:43:51;1.90;99.90
14934;DHT22;7560;51.364;12.384;2023-11-22T20:48:52;2.00;99.90
14934;DHT22;7560;51.364;12.384;2023-11-22T20:53:54;2.00;99.90
14934;DHT22;7560;51.364;12.384;2023-11-22T20:58:56;2.00;99.90
14934;DHT22;7560;51.364;12.384;2023-11-22T21:03:58;2.00;99.90
14934;DHT22;7560;51.364;12.384;2023-11-22T21:09:00;2.00;99.90
14934;DHT22;7560;51.364;12.384;2023-11-22T21:14:02;2.10;99.90
14934;DHT22;7560;51.364;12.384;2023-11-22T21:19:04;2.10;99.90
14934;DHT22;7560;51.364;12.384;2023-11-22T21:24:09;2.10;99.90
14934;DHT22;7560;51.364;12.384;2023-11-22T21:29:11;2.10;99.90
14934;DHT22;7560;51.364;12.384;2023-11-22T21:34:13;2.10;99.90
14934;DHT22;7560;51.364;12.384;2023-11-22T21:39:15;2.20;99.90
14934;DHT22;7560;51.364;12.384;2023-11-22T21:44:19;2.20;99.90
14934;DHT22;7560;51.364;12.384;2023-11-22T21:49:20;2.30;99.90
14934;DHT22;7560;51.364;12.384;2023-11-22T21:54:22;2.40;99.90
14934;DHT22;7560;51.364;12.384;2023-11-22T21:59:24;2.40;99.90
14934;DHT22;7560;51.364;12.384;2023-11-22T22:04:26;2.50;99.90
14934;DHT22;7560;51.364;12.384;2023-11-22T22:09:28;2.50;99.90
14934;DHT22;7560;51.364;12.384;2023-11-22T22:14:30;2.60;99.90
14934;DHT22;7560;51.364;12.384;2023-11-22T22:19:32;2.60;99.90
14934;DHT22;7560;51.364;12.384;2023-11-22T22:24:34;2.60;99.90
14934;DHT22;7560;51.364;12.384;2023-11-22T22:29:35;2.70;99.90
14934;DHT22;7560;51.364;12.384;2023-11-22T22:34:37;2.70;99.90
14934;DHT22;7560;51.364;12.384;2023-11-22T22:39:39;2.70;99.90
14934;DHT22;7560;51.364;12.384;2023-11-22T22:44:41;2.80;99.90
14934;DHT22;7560;51.364;12.384;2023-11-22T22:49:43;2.80;99.90
14934;DHT22;7560;51.364;12.384;2023-11-22T22:54:45;2.80;99.90
14934;DHT22;7560;51.364;12.384;2023-11-22T22:59:47;2.80;99.90
14934;DHT22;7560;51.364;12.384;2023-11-22T23:04:50;2.90;99.90
14934;DHT22;7560;51.364;12.384;2023-11-22T23:09:54;2.90;99.90
14934;DHT22;7560;51.364;12.384;2023-11-22T23:14:58;2.90;99.90
14934;DHT22;7560;51.364;12.384;2023-11-22T23:20:00;2.90;99.90
14934;DHT22;7560;51.364;12.384;2023-11-22T23:25:01;2.80;99.90
14934;DHT22;7560;51.364;12.384;2023-11-22T23:30:05;2.80;99.90
14934;DHT22;7560;51.364;12.384;2023-11-22T23:35:11;2.80;99.90
14934;DHT22;7560;51.364;12.384;2023-11-22T23:40:14;2.90;99.90
14934;DHT22;7560;51.364;12.384;2023-11-22T23:45:20;2.90;99.90
14934;DHT22;7560;51.364;12.384;2023-11-22T23:50:22;3.00;99.90
14934;DHT22;7560;51.364;12.384;2023-11-22T23:55:24;3.10;99.90
